Merenga, Russia
Current Conditions -  °F | °C
As of 12:00 AM on Wednesday 22 Oct 2014 (Local Time) from UHMM Reporting Station
Scattered Clouds Scattered Clouds  
Wind Chill:   Ceiling: Unl
Heat Index: 10°   Visibility: 6mi
Dew Point:   Wind: 4mph
Humidity: 92%   Direction: 120°ESE
Pressure: 29.56"   Gusts: NA
Location:  61.9°N, 156.13°E
Report Text: UHMM 211300Z 12002MPS 9999 SCT100 M12/M13 Q1001 RMK QFE736
Loading
Personal Weather Stations






























Interactive Weather Map
Tropical Storm Tracking
New forecast layout! Learn more

10-Day Weather Forecast

Advertisements
Track Severe Weather on mobile